sensor_id;sensor_type;location;lat;lon;timestamp;temperature;humidity
52979;DHT22;63430;53.186;6.598;2023-02-12T00:00:15;6.30;99.90
52979;DHT22;63430;53.186;6.598;2023-02-12T00:02:17;6.30;99.90
52979;DHT22;63430;53.186;6.598;2023-02-12T00:04:23;6.30;99.90
52979;DHT22;63430;53.186;6.598;2023-02-12T00:06:25;6.30;99.90
52979;DHT22;63430;53.186;6.598;2023-02-12T00:08:28;6.40;99.90
52979;DHT22;63430;53.186;6.598;2023-02-12T00:10:31;6.30;99.90
52979;DHT22;63430;53.186;6.598;2023-02-12T00:12:33;6.20;99.90
52979;DHT22;63430;53.186;6.598;2023-02-12T00:14:36;6.30;99.90
52979;DHT22;63430;53.186;6.598;2023-02-12T00:16:38;6.30;99.90
52979;DHT22;63430;53.186;6.598;2023-02-12T00:18:41;6.30;99.90
52979;DHT22;63430;53.186;6.598;2023-02-12T00:20:49;6.30;99.90
52979;DHT22;63430;53.186;6.598;2023-02-12T00:22:52;6.20;99.90
52979;DHT22;63430;53.186;6.598;2023-02-12T00:24:55;6.20;99.90
52979;DHT22;63430;53.186;6.598;2023-02-12T00:26:58;6.20;99.90
52979;DHT22;63430;53.186;6.598;2023-02-12T00:29:00;6.20;99.90
52979;DHT22;63430;53.186;6.598;2023-02-12T00:31:06;6.20;99.90
52979;DHT22;63430;53.186;6.598;2023-02-12T00:33:09;6.20;99.90
52979;DHT22;63430;53.186;6.598;2023-02-12T00:35:12;6.20;99.90
52979;DHT22;63430;53.186;6.598;2023-02-12T00:37:17;6.20;99.90
52979;DHT22;63430;53.186;6.598;2023-02-12T00:39:20;6.20;99.90
52979;DHT22;63430;53.186;6.598;2023-02-12T00:41:23;6.20;99.90
52979;DHT22;63430;53.186;6.598;2023-02-12T00:43:27;6.40;99.90
52979;DHT22;63430;53.186;6.598;2023-02-12T00:45:29;6.20;99.90
52979;DHT22;63430;53.186;6.598;2023-02-12T00:47:32;6.20;99.90
52979;DHT22;63430;53.186;6.598;2023-02-12T00:49:35;6.20;99.90
52979;DHT22;63430;53.186;6.598;2023-02-12T00:51:37;6.20;99.90
52979;DHT22;63430;53.186;6.598;2023-02-12T00:53:46;6.20;99.90
52979;DHT22;63430;53.186;6.598;2023-02-12T00:55:49;6.20;99.90
52979;DHT22;63430;53.186;6.598;2023-02-12T00:57:51;6.20;99.90
52979;DHT22;63430;53.186;6.598;2023-02-12T00:59:54;6.80;99.90
52979;DHT22;63430;53.186;6.598;2023-02-12T01:01:58;6.20;99.90
52979;DHT22;63430;53.186;6.598;2023-02-12T01:04:00;6.20;99.90
52979;DHT22;63430;53.186;6.598;2023-02-12T01:06:09;6.20;99.90
52979;DHT22;63430;53.186;6.598;2023-02-12T01:08:31;6.20;99.90
52979;DHT22;63430;53.186;6.598;2023-02-12T01:10:36;6.20;99.90
52979;DHT22;63430;53.186;6.598;2023-02-12T01:12:38;6.20;99.90
52979;DHT22;63430;53.186;6.598;2023-02-12T01:14:41;6.20;99.90
52979;DHT22;63430;53.186;6.598;2023-02-12T01:16:43;6.20;99.90
52979;DHT22;63430;53.186;6.598;2023-02-12T01:18:46;6.20;99.90
52979;DHT22;63430;53.186;6.598;2023-02-12T01:20:49;6.20;99.90
52979;DHT22;63430;53.186;6.598;2023-02-12T01:22:51;6.20;99.90
52979;DHT22;63430;53.186;6.598;2023-02-12T01:24:54;6.20;99.90
52979;DHT22;63430;53.186;6.598;2023-02-12T01:27:01;6.20;99.90
52979;DHT22;63430;53.186;6.598;2023-02-12T01:29:07;6.30;99.90
52979;DHT22;63430;53.186;6.598;2023-02-12T01:31:14;6.20;99.90
52979;DHT22;63430;53.186;6.598;2023-02-12T01:33:18;6.20;99.90
52979;DHT22;63430;53.186;6.598;2023-02-12T01:35:22;6.20;99.90
52979;DHT22;63430;53.186;6.598;2023-02-12T01:37:24;6.20;99.90
52979;DHT22;63430;53.186;6.598;2023-02-12T01:39:28;6.20;99.90
52979;DHT22;63430;53.186;6.598;2023-02-12T01:41:33;6.20;99.90
52979;DHT22;63430;53.186;6.598;2023-02-12T01:43:39;6.10;99.90
52979;DHT22;63430;53.186;6.598;2023-02-12T01:45:47;6.20;99.90
52979;DHT22;63430;53.186;6.598;2023-02-12T01:47:50;6.20;99.90
52979;DHT22;63430;53.186;6.598;2023-02-12T01:49:54;6.20;99.90
52979;DHT22;63430;53.186;6.598;2023-02-12T01:52:05;6.10;99.90
52979;DHT22;63430;53.186;6.598;2023-02-12T01:54:10;6.10;99.90
52979;DHT22;63430;53.186;6.598;2023-02-12T01:56:14;6.10;99.90
52979;DHT22;63430;53.186;6.598;2023-02-12T01:58:18;6.10;99.90
52979;DHT22;63430;53.186;6.598;2023-02-12T02:00:24;6.10;99.90
52979;DHT22;63430;53.186;6.598;2023-02-12T02:02:27;6.00;99.90
52979;DHT22;63430;53.186;6.598;2023-02-12T02:04:35;6.00;99.90
52979;DHT22;63430;53.186;6.598;2023-02-12T02:06:45;6.00;99.90
52979;DHT22;63430;53.186;6.598;2023-02-12T02:08:50;6.20;99.90
52979;DHT22;63430;53.186;6.598;2023-02-12T02:10:52;6.00;99.90
52979;DHT22;63430;53.186;6.598;2023-02-12T02:13:00;6.00;99.90
52979;DHT22;63430;53.186;6.598;2023-02-12T02:15:25;6.00;99.90
52979;DHT22;63430;53.186;6.598;2023-02-12T02:17:42;6.00;99.90
52979;DHT22;63430;53.186;6.598;2023-02-12T02:20:22;6.00;99.90
52979;DHT22;63430;53.186;6.598;2023-02-12T02:22:34;5.90;99.90
52979;DHT22;63430;53.186;6.598;2023-02-12T02:27:18;5.90;99.90
52979;DHT22;63430;53.186;6.598;2023-02-12T02:32:10;5.90;99.90
52979;DHT22;63430;53.186;6.598;2023-02-12T02:34:19;5.90;99.90
52979;DHT22;63430;53.186;6.598;2023-02-12T02:36:30;5.80;99.90
52979;DHT22;63430;53.186;6.598;2023-02-12T02:38:40;5.90;99.90
52979;DHT22;63430;53.186;6.598;2023-02-12T02:40:49;5.80;99.90
52979;DHT22;63430;53.186;6.598;2023-02-12T02:42:55;5.80;99.90
52979;DHT22;63430;53.186;6.598;2023-02-12T02:45:05;5.80;99.90
52979;DHT22;63430;53.186;6.598;2023-02-12T02:47:13;6.50;99.90
52979;DHT22;63430;53.186;6.598;2023-02-12T02:49:20;5.80;99.90
52979;DHT22;63430;53.186;6.598;2023-02-12T02:51:28;5.80;99.90
52979;DHT22;63430;53.186;6.598;2023-02-12T02:53:34;5.80;99.90
52979;DHT22;63430;53.186;6.598;2023-02-12T02:55:42;5.80;99.90
52979;DHT22;63430;53.186;6.598;2023-02-12T02:57:50;5.80;99.90
52979;DHT22;63430;53.186;6.598;2023-02-12T02:59:59;5.80;99.90
52979;DHT22;63430;53.186;6.598;2023-02-12T03:02:30;5.80;99.90
52979;DHT22;63430;53.186;6.598;2023-02-12T03:04:38;5.80;99.90
52979;DHT22;63430;53.186;6.598;2023-02-12T03:06:46;5.80;99.90
52979;DHT22;63430;53.186;6.598;2023-02-12T03:08:54;5.80;99.90
52979;DHT22;63430;53.186;6.598;2023-02-12T03:11:02;5.80;99.90
52979;DHT22;63430;53.186;6.598;2023-02-12T03:13:08;5.80;99.90
52979;DHT22;63430;53.186;6.598;2023-02-12T03:15:14;5.80;99.90
52979;DHT22;63430;53.186;6.598;2023-02-12T03:17:21;5.80;99.90
52979;DHT22;63430;53.186;6.598;2023-02-12T03:19:30;5.80;99.90
52979;DHT22;63430;53.186;6.598;2023-02-12T03:21:40;5.80;99.90
52979;DHT22;63430;53.186;6.598;2023-02-12T03:23:48;5.80;99.90
52979;DHT22;63430;53.186;6.598;2023-02-12T03:25:55;5.90;99.90
52979;DHT22;63430;53.186;6.598;2023-02-12T03:28:05;5.80;99.90
52979;DHT22;63430;53.186;6.598;2023-02-12T03:30:10;5.80;99.90
52979;DHT22;63430;53.186;6.598;2023-02-12T03:32:23;5.90;99.90
52979;DHT22;63430;53.186;6.598;2023-02-12T03:34:37;5.80;99.90
52979;DHT22;63430;53.186;6.598;2023-02-12T03:36:48;5.90;99.90
52979;DHT22;63430;53.186;6.598;2023-02-12T03:38:55;5.90;99.90
52979;DHT22;63430;53.186;6.598;2023-02-12T03:41:04;5.90;99.90
52979;DHT22;63430;53.186;6.598;2023-02-12T03:43:15;5.90;99.90
52979;DHT22;63430;53.186;6.598;2023-02-12T03:45:27;5.90;99.90
52979;DHT22;63430;53.186;6.598;2023-02-12T03:47:40;5.90;99.90
52979;DHT22;63430;53.186;6.598;2023-02-12T03:49:52;5.90;99.90
52979;DHT22;63430;53.186;6.598;2023-02-12T03:51:57;5.90;99.90
52979;DHT22;63430;53.186;6.598;2023-02-12T03:54:00;5.90;99.90
52979;DHT22;63430;53.186;6.598;2023-02-12T03:56:08;5.90;99.90
52979;DHT22;63430;53.186;6.598;2023-02-12T03:58:19;6.00;99.90
52979;DHT22;63430;53.186;6.598;2023-02-12T04:00:23;6.00;99.90
52979;DHT22;63430;53.186;6.598;2023-02-12T04:02:27;6.00;99.90
52979;DHT22;63430;53.186;6.598;2023-02-12T04:04:32;6.00;99.90
52979;DHT22;63430;53.186;6.598;2023-02-12T04:06:38;6.00;99.90
52979;DHT22;63430;53.186;6.598;2023-02-12T04:08:41;5.90;99.90
52979;DHT22;63430;53.186;6.598;2023-02-12T04:10:52;5.90;99.90
52979;DHT22;63430;53.186;6.598;2023-02-12T04:13:08;5.90;99.90
52979;DHT22;63430;53.186;6.598;2023-02-12T04:15:33;5.90;99.90
52979;DHT22;63430;53.186;6.598;2023-02-12T04:17:45;5.90;99.90
52979;DHT22;63430;53.186;6.598;2023-02-12T04:19:57;5.90;99.90
52979;DHT22;63430;53.186;6.598;2023-02-12T04:22:18;5.90;99.90
52979;DHT22;63430;53.186;6.598;2023-02-12T04:24:27;5.90;99.90
52979;DHT22;63430;53.186;6.598;2023-02-12T04:26:36;5.90;99.90
52979;DHT22;63430;53.186;6.598;2023-02-12T04:28:45;5.80;99.90
52979;DHT22;63430;53.186;6.598;2023-02-12T04:30:55;5.80;99.90
52979;DHT22;63430;53.186;6.598;2023-02-12T04:33:02;5.80;99.90
52979;DHT22;63430;53.186;6.598;2023-02-12T04:35:11;5.80;99.90
52979;DHT22;63430;53.186;6.598;2023-02-12T04:37:20;5.70;99.90
52979;DHT22;63430;53.186;6.598;2023-02-12T04:39:27;5.70;99.90
52979;DHT22;63430;53.186;6.598;2023-02-12T04:41:30;5.70;99.90
52979;DHT22;63430;53.186;6.598;2023-02-12T04:43:35;5.60;99.90
52979;DHT22;63430;53.186;6.598;2023-02-12T04:45:39;5.60;99.90
52979;DHT22;63430;53.186;6.598;2023-02-12T04:47:42;5.60;99.90
52979;DHT22;63430;53.186;6.598;2023-02-12T04:49:44;5.60;99.90
52979;DHT22;63430;53.186;6.598;2023-02-12T04:51:48;5.70;99.90
52979;DHT22;63430;53.186;6.598;2023-02-12T04:53:53;5.50;99.90
52979;DHT22;63430;53.186;6.598;2023-02-12T04:55:56;5.50;99.90
52979;DHT22;63430;53.186;6.598;2023-02-12T04:57:59;5.40;99.90
52979;DHT22;63430;53.186;6.598;2023-02-12T05:00:01;5.40;99.90
52979;DHT22;63430;53.186;6.598;2023-02-12T05:02:04;5.40;99.90
52979;DHT22;63430;53.186;6.598;2023-02-12T05:04:07;5.40;99.90
52979;DHT22;63430;53.186;6.598;2023-02-12T05:06:09;5.30;99.90
52979;DHT22;63430;53.186;6.598;2023-02-12T05:08:12;5.30;99.90
52979;DHT22;63430;53.186;6.598;2023-02-12T05:10:17;5.40;99.90
52979;DHT22;63430;53.186;6.598;2023-02-12T05:12:21;5.30;99.90
52979;DHT22;63430;53.186;6.598;2023-02-12T05:14:23;5.30;99.90
52979;DHT22;63430;53.186;6.598;2023-02-12T05:16:27;5.30;99.90
52979;DHT22;63430;53.186;6.598;2023-02-12T05:18:29;5.30;99.90
52979;DHT22;63430;53.186;6.598;2023-02-12T05:20:33;5.30;99.90
52979;DHT22;63430;53.186;6.598;2023-02-12T05:22:35;5.30;99.90
52979;DHT22;63430;53.186;6.598;2023-02-12T05:24:37;5.30;99.90
52979;DHT22;63430;53.186;6.598;2023-02-12T05:26:43;5.30;99.90
52979;DHT22;63430;53.186;6.598;2023-02-12T05:28:46;5.30;99.90
52979;DHT22;63430;53.186;6.598;2023-02-12T05:30:51;5.30;99.90
52979;DHT22;63430;53.186;6.598;2023-02-12T05:32:54;5.30;99.90
52979;DHT22;63430;53.186;6.598;2023-02-12T05:34:56;5.30;99.90
52979;DHT22;63430;53.186;6.598;2023-02-12T05:36:59;5.30;99.90
52979;DHT22;63430;53.186;6.598;2023-02-12T05:39:02;5.20;99.90
52979;DHT22;63430;53.186;6.598;2023-02-12T05:41:06;5.30;99.90
52979;DHT22;63430;53.186;6.598;2023-02-12T05:43:12;5.30;99.90
52979;DHT22;63430;53.186;6.598;2023-02-12T05:45:15;5.30;99.90
52979;DHT22;63430;53.186;6.598;2023-02-12T05:47:18;5.30;99.90
52979;DHT22;63430;53.186;6.598;2023-02-12T05:49:21;5.30;99.90
52979;DHT22;63430;53.186;6.598;2023-02-12T05:51:24;5.30;99.90
52979;DHT22;63430;53.186;6.598;2023-02-12T05:53:27;5.20;99.90
52979;DHT22;63430;53.186;6.598;2023-02-12T05:55:30;5.30;99.90
52979;DHT22;63430;53.186;6.598;2023-02-12T05:57:32;5.20;99.90
52979;DHT22;63430;53.186;6.598;2023-02-12T05:59:38;5.30;99.90
52979;DHT22;63430;53.186;6.598;2023-02-12T06:01:41;5.30;99.90
52979;DHT22;63430;53.186;6.598;2023-02-12T06:03:44;5.20;99.90
52979;DHT22;63430;53.186;6.598;2023-02-12T06:05:49;5.20;99.90
52979;DHT22;63430;53.186;6.598;2023-02-12T06:07:52;5.20;99.90
52979;DHT22;63430;53.186;6.598;2023-02-12T06:09:54;5.20;99.90
52979;DHT22;63430;53.186;6.598;2023-02-12T06:12:01;5.30;99.90
52979;DHT22;63430;53.186;6.598;2023-02-12T06:14:05;5.30;99.90
52979;DHT22;63430;53.186;6.598;2023-02-12T06:16:32;5.30;99.90
52979;DHT22;63430;53.186;6.598;2023-02-12T06:18:35;5.20;99.90
52979;DHT22;63430;53.186;6.598;2023-02-12T06:20:38;5.30;99.90
52979;DHT22;63430;53.186;6.598;2023-02-12T06:22:41;5.20;99.90
52979;DHT22;63430;53.186;6.598;2023-02-12T06:24:43;5.30;99.90
52979;DHT22;63430;53.186;6.598;2023-02-12T06:26:48;5.20;99.90
52979;DHT22;63430;53.186;6.598;2023-02-12T06:28:51;5.20;99.90
52979;DHT22;63430;53.186;6.598;2023-02-12T06:30:53;5.20;99.90
52979;DHT22;63430;53.186;6.598;2023-02-12T06:32:59;5.20;99.90
52979;DHT22;63430;53.186;6.598;2023-02-12T06:35:02;5.50;99.90
52979;DHT22;63430;53.186;6.598;2023-02-12T06:37:05;5.20;99.90
52979;DHT22;63430;53.186;6.598;2023-02-12T06:39:09;5.20;99.90
52979;DHT22;63430;53.186;6.598;2023-02-12T06:41:11;5.30;99.90
52979;DHT22;63430;53.186;6.598;2023-02-12T06:43:21;5.30;99.90
52979;DHT22;63430;53.186;6.598;2023-02-12T06:45:25;5.30;99.90
52979;DHT22;63430;53.186;6.598;2023-02-12T06:47:28;5.20;99.90
52979;DHT22;63430;53.186;6.598;2023-02-12T06:49:33;5.20;99.90
52979;DHT22;63430;53.186;6.598;2023-02-12T06:51:40;5.20;99.90
52979;DHT22;63430;53.186;6.598;2023-02-12T06:53:43;5.20;99.90
52979;DHT22;63430;53.186;6.598;2023-02-12T06:55:45;5.30;99.90
52979;DHT22;63430;53.186;6.598;2023-02-12T06:57:48;5.20;99.90
52979;DHT22;63430;53.186;6.598;2023-02-12T06:59:50;5.30;99.90
52979;DHT22;63430;53.186;6.598;2023-02-12T07:01:53;5.30;99.90
52979;DHT22;63430;53.186;6.598;2023-02-12T07:03:57;5.30;99.90
52979;DHT22;63430;53.186;6.598;2023-02-12T07:06:02;5.30;99.90
52979;DHT22;63430;53.186;6.598;2023-02-12T07:08:04;5.30;99.90
52979;DHT22;63430;53.186;6.598;2023-02-12T07:10:08;5.30;99.90
52979;DHT22;63430;53.186;6.598;2023-02-12T07:12:11;5.30;99.90
52979;DHT22;63430;53.186;6.598;2023-02-12T07:14:14;5.30;99.90
52979;DHT22;63430;53.186;6.598;2023-02-12T07:16:18;5.30;99.90
52979;DHT22;63430;53.186;6.598;2023-02-12T07:18:20;5.40;99.90
52979;DHT22;63430;53.186;6.598;2023-02-12T07:20:23;5.30;99.90
52979;DHT22;63430;53.186;6.598;2023-02-12T07:22:29;5.40;99.90
52979;DHT22;63430;53.186;6.598;2023-02-12T07:24:32;5.40;99.90
52979;DHT22;63430;53.186;6.598;2023-02-12T07:26:35;5.40;99.90
52979;DHT22;63430;53.186;6.598;2023-02-12T07:28:38;5.40;99.90
52979;DHT22;63430;53.186;6.598;2023-02-12T07:30:41;5.40;99.90
52979;DHT22;63430;53.186;6.598;2023-02-12T07:32:44;5.40;99.90
52979;DHT22;63430;53.186;6.598;2023-02-12T07:34:48;5.60;99.90
52979;DHT22;63430;53.186;6.598;2023-02-12T07:36:51;5.40;99.90
52979;DHT22;63430;53.186;6.598;2023-02-12T07:38:56;5.70;99.90
52979;DHT22;63430;53.186;6.598;2023-02-12T07:41:06;5.50;99.90
52979;DHT22;63430;53.186;6.598;2023-02-12T07:43:11;5.50;99.90
52979;DHT22;63430;53.186;6.598;2023-02-12T07:45:14;5.50;99.90
52979;DHT22;63430;53.186;6.598;2023-02-12T07:47:17;5.50;99.90
52979;DHT22;63430;53.186;6.598;2023-02-12T07:49:21;5.40;99.90
52979;DHT22;63430;53.186;6.598;2023-02-12T07:51:24;5.40;99.90
52979;DHT22;63430;53.186;6.598;2023-02-12T07:53:27;6.00;99.90
52979;DHT22;63430;53.186;6.598;2023-02-12T07:55:32;5.60;99.90
52979;DHT22;63430;53.186;6.598;2023-02-12T07:57:35;5.50;99.90
52979;DHT22;63430;53.186;6.598;2023-02-12T07:59:37;5.50;99.90
52979;DHT22;63430;53.186;6.598;2023-02-12T08:01:41;5.60;99.90
52979;DHT22;63430;53.186;6.598;2023-02-12T08:03:45;5.60;99.90
52979;DHT22;63430;53.186;6.598;2023-02-12T08:05:47;5.60;99.90
52979;DHT22;63430;53.186;6.598;2023-02-12T08:07:50;5.60;99.90
52979;DHT22;63430;53.186;6.598;2023-02-12T08:09:52;5.60;99.90
52979;DHT22;63430;53.186;6.598;2023-02-12T08:11:57;5.70;99.90
52979;DHT22;63430;53.186;6.598;2023-02-12T08:14:06;5.60;99.90
52979;DHT22;63430;53.186;6.598;2023-02-12T08:16:11;5.70;99.90
52979;DHT22;63430;53.186;6.598;2023-02-12T08:18:14;5.70;99.90
52979;DHT22;63430;53.186;6.598;2023-02-12T08:20:17;5.70;99.90
52979;DHT22;63430;53.186;6.598;2023-02-12T08:22:19;5.80;99.90
52979;DHT22;63430;53.186;6.598;2023-02-12T08:24:22;5.70;99.90
52979;DHT22;63430;53.186;6.598;2023-02-12T08:26:26;6.20;99.90
52979;DHT22;63430;53.186;6.598;2023-02-12T08:28:32;5.70;99.90
52979;DHT22;63430;53.186;6.598;2023-02-12T08:30:35;5.80;99.90
52979;DHT22;63430;53.186;6.598;2023-02-12T08:32:37;5.80;99.90
52979;DHT22;63430;53.186;6.598;2023-02-12T08:34:41;5.80;99.90
52979;DHT22;63430;53.186;6.598;2023-02-12T08:36:45;5.90;99.90
52979;DHT22;63430;53.186;6.598;2023-02-12T08:38:48;5.90;99.90
52979;DHT22;63430;53.186;6.598;2023-02-12T08:40:50;5.90;99.90
52979;DHT22;63430;53.186;6.598;2023-02-12T08:42:53;5.90;99.90
52979;DHT22;63430;53.186;6.598;2023-02-12T08:44:58;6.00;99.90
52979;DHT22;63430;53.186;6.598;2023-02-12T08:47:00;6.00;99.90
52979;DHT22;63430;53.186;6.598;2023-02-12T08:49:04;6.00;99.90
52979;DHT22;63430;53.186;6.598;2023-02-12T08:51:10;6.00;99.90
52979;DHT22;63430;53.186;6.598;2023-02-12T08:53:12;6.10;99.90
52979;DHT22;63430;53.186;6.598;2023-02-12T08:55:17;6.10;99.90
52979;DHT22;63430;53.186;6.598;2023-02-12T08:57:20;6.10;99.90
52979;DHT22;63430;53.186;6.598;2023-02-12T08:59:23;6.70;99.90
52979;DHT22;63430;53.186;6.598;2023-02-12T09:01:29;6.10;99.90
52979;DHT22;63430;53.186;6.598;2023-02-12T09:03:33;6.10;99.90
52979;DHT22;63430;53.186;6.598;2023-02-12T09:05:37;6.20;99.90
52979;DHT22;63430;53.186;6.598;2023-02-12T09:07:40;6.20;99.90
52979;DHT22;63430;53.186;6.598;2023-02-12T09:09:42;6.20;99.90
52979;DHT22;63430;53.186;6.598;2023-02-12T09:11:45;6.30;99.90
52979;DHT22;63430;53.186;6.598;2023-02-12T09:13:47;6.30;99.90
52979;DHT22;63430;53.186;6.598;2023-02-12T09:15:50;6.40;99.90
52979;DHT22;63430;53.186;6.598;2023-02-12T09:17:57;6.40;99.90
52979;DHT22;63430;53.186;6.598;2023-02-12T09:20:00;6.40;99.90
52979;DHT22;63430;53.186;6.598;2023-02-12T09:22:03;6.40;99.90
52979;DHT22;63430;53.186;6.598;2023-02-12T09:24:06;6.50;99.90
52979;DHT22;63430;53.186;6.598;2023-02-12T09:26:10;6.50;99.90
52979;DHT22;63430;53.186;6.598;2023-02-12T09:28:13;6.60;99.90
52979;DHT22;63430;53.186;6.598;2023-02-12T09:30:16;6.60;99.90
52979;DHT22;63430;53.186;6.598;2023-02-12T09:32:19;6.70;99.90
52979;DHT22;63430;53.186;6.598;2023-02-12T09:34:24;6.70;99.90
52979;DHT22;63430;53.186;6.598;2023-02-12T09:36:27;6.80;99.90
52979;DHT22;63430;53.186;6.598;2023-02-12T09:38:30;7.20;99.90
52979;DHT22;63430;53.186;6.598;2023-02-12T09:40:37;6.80;99.90
52979;DHT22;63430;53.186;6.598;2023-02-12T09:43:02;6.80;99.90
52979;DHT22;63430;53.186;6.598;2023-02-12T09:45:11;6.80;99.90
52979;DHT22;63430;53.186;6.598;2023-02-12T09:47:22;6.90;99.90
52979;DHT22;63430;53.186;6.598;2023-02-12T09:49:46;6.90;99.90
52979;DHT22;63430;53.186;6.598;2023-02-12T09:51:52;7.00;99.90
52979;DHT22;63430;53.186;6.598;2023-02-12T09:54:01;7.00;99.90
52979;DHT22;63430;53.186;6.598;2023-02-12T09:56:10;7.10;99.90
52979;DHT22;63430;53.186;6.598;2023-02-12T09:58:16;7.10;99.90
52979;DHT22;63430;53.186;6.598;2023-02-12T10:00:24;7.10;99.90
52979;DHT22;63430;53.186;6.598;2023-02-12T10:02:30;7.20;99.90
52979;DHT22;63430;53.186;6.598;2023-02-12T10:04:35;7.20;99.90
52979;DHT22;63430;53.186;6.598;2023-02-12T10:06:42;7.20;99.90
52979;DHT22;63430;53.186;6.598;2023-02-12T10:08:58;7.20;99.90
52979;DHT22;63430;53.186;6.598;2023-02-12T10:11:26;7.30;99.90
52979;DHT22;63430;53.186;6.598;2023-02-12T10:13:38;7.30;99.90
52979;DHT22;63430;53.186;6.598;2023-02-12T10:15:52;8.10;99.90
52979;DHT22;63430;53.186;6.598;2023-02-12T10:18:13;7.40;99.90
52979;DHT22;63430;53.186;6.598;2023-02-12T10:23:07;7.60;99.90
52979;DHT22;63430;53.186;6.598;2023-02-12T10:25:22;8.00;99.90
52979;DHT22;63430;53.186;6.598;2023-02-12T10:27:40;7.60;99.90
52979;DHT22;63430;53.186;6.598;2023-02-12T10:29:45;7.60;99.90
52979;DHT22;63430;53.186;6.598;2023-02-12T10:31:52;7.70;99.90
52979;DHT22;63430;53.186;6.598;2023-02-12T10:33:56;7.70;99.90
52979;DHT22;63430;53.186;6.598;2023-02-12T10:36:03;7.70;99.90
52979;DHT22;63430;53.186;6.598;2023-02-12T10:38:15;7.20;99.90
52979;DHT22;63430;53.186;6.598;2023-02-12T10:40:22;7.80;99.90
52979;DHT22;63430;53.186;6.598;2023-02-12T10:42:36;7.90;99.90
52979;DHT22;63430;53.186;6.598;2023-02-12T10:44:39;7.90;99.90
52979;DHT22;63430;53.186;6.598;2023-02-12T10:46:42;8.30;99.90
52979;DHT22;63430;53.186;6.598;2023-02-12T10:48:51;8.40;99.90
52979;DHT22;63430;53.186;6.598;2023-02-12T10:51:04;8.00;99.90
52979;DHT22;63430;53.186;6.598;2023-02-12T10:53:20;8.00;99.90
52979;DHT22;63430;53.186;6.598;2023-02-12T10:55:25;8.00;99.90
52979;DHT22;63430;53.186;6.598;2023-02-12T10:57:37;8.00;99.90
52979;DHT22;63430;53.186;6.598;2023-02-12T10:59:41;8.00;99.90
52979;DHT22;63430;53.186;6.598;2023-02-12T11:01:46;8.00;99.90
52979;DHT22;63430;53.186;6.598;2023-02-12T11:03:49;8.00;99.90
52979;DHT22;63430;53.186;6.598;2023-02-12T11:05:51;8.00;99.90
52979;DHT22;63430;53.186;6.598;2023-02-12T11:07:56;8.10;99.90
52979;DHT22;63430;53.186;6.598;2023-02-12T11:10:19;8.10;99.90
52979;DHT22;63430;53.186;6.598;2023-02-12T11:12:33;8.10;99.90
52979;DHT22;63430;53.186;6.598;2023-02-12T11:14:37;8.20;99.90
52979;DHT22;63430;53.186;6.598;2023-02-12T11:16:45;8.20;99.90
52979;DHT22;63430;53.186;6.598;2023-02-12T11:18:58;8.30;99.90
52979;DHT22;63430;53.186;6.598;2023-02-12T11:21:02;8.40;99.90
52979;DHT22;63430;53.186;6.598;2023-02-12T11:23:23;8.40;99.90
52979;DHT22;63430;53.186;6.598;2023-02-12T11:25:30;8.50;99.90
52979;DHT22;63430;53.186;6.598;2023-02-12T11:27:33;8.50;99.90
52979;DHT22;63430;53.186;6.598;2023-02-12T11:29:36;8.60;99.90
52979;DHT22;63430;53.186;6.598;2023-02-12T11:31:38;8.60;99.90
52979;DHT22;63430;53.186;6.598;2023-02-12T11:33:43;8.70;99.90
52979;DHT22;63430;53.186;6.598;2023-02-12T11:35:54;8.80;99.90
52979;DHT22;63430;53.186;6.598;2023-02-12T11:37:58;8.80;99.90
52979;DHT22;63430;53.186;6.598;2023-02-12T11:40:03;8.80;99.90
52979;DHT22;63430;53.186;6.598;2023-02-12T11:42:19;8.80;99.90
52979;DHT22;63430;53.186;6.598;2023-02-12T11:44:25;8.80;99.90
52979;DHT22;63430;53.186;6.598;2023-02-12T11:46:28;9.00;99.90
52979;DHT22;63430;53.186;6.598;2023-02-12T11:48:32;9.10;99.90
52979;DHT22;63430;53.186;6.598;2023-02-12T11:50:36;9.20;99.90
52979;DHT22;63430;53.186;6.598;2023-02-12T11:52:39;9.40;99.90
52979;DHT22;63430;53.186;6.598;2023-02-12T11:54:46;9.60;99.90
52979;DHT22;63430;53.186;6.598;2023-02-12T11:56:50;9.90;99.90
52979;DHT22;63430;53.186;6.598;2023-02-12T11:59:10;10.10;99.90
52979;DHT22;63430;53.186;6.598;2023-02-12T12:01:17;10.30;99.90
52979;DHT22;63430;53.186;6.598;2023-02-12T12:03:28;10.50;99.90
52979;DHT22;63430;53.186;6.598;2023-02-12T12:05:35;10.60;99.90
52979;DHT22;63430;53.186;6.598;2023-02-12T12:07:43;10.80;99.90
52979;DHT22;63430;53.186;6.598;2023-02-12T12:09:49;10.80;99.90
52979;DHT22;63430;53.186;6.598;2023-02-12T12:12:00;10.90;99.90
52979;DHT22;63430;53.186;6.598;2023-02-12T12:14:14;10.80;99.90
52979;DHT22;63430;53.186;6.598;2023-02-12T12:16:21;10.90;99.90
52979;DHT22;63430;53.186;6.598;2023-02-12T12:18:47;10.80;99.90
52979;DHT22;63430;53.186;6.598;2023-02-12T12:21:15;10.80;99.90
52979;DHT22;63430;53.186;6.598;2023-02-12T12:23:27;10.80;99.90
52979;DHT22;63430;53.186;6.598;2023-02-12T12:25:36;10.60;99.90
52979;DHT22;63430;53.186;6.598;2023-02-12T12:27:59;10.60;99.90
52979;DHT22;63430;53.186;6.598;2023-02-12T12:30:19;10.60;99.90
52979;DHT22;63430;53.186;6.598;2023-02-12T12:32:25;10.50;99.90
52979;DHT22;63430;53.186;6.598;2023-02-12T12:34:30;10.40;99.90
52979;DHT22;63430;53.186;6.598;2023-02-12T12:36:50;10.40;99.90
52979;DHT22;63430;53.186;6.598;2023-02-12T12:39:03;10.30;99.90
52979;DHT22;63430;53.186;6.598;2023-02-12T12:41:17;10.30;99.90
52979;DHT22;63430;53.186;6.598;2023-02-12T12:43:31;10.20;99.90
52979;DHT22;63430;53.186;6.598;2023-02-12T12:48:16;10.10;99.90
52979;DHT22;63430;53.186;6.598;2023-02-12T12:50:50;10.20;99.90
52979;DHT22;63430;53.186;6.598;2023-02-12T12:53:08;10.00;99.90
52979;DHT22;63430;53.186;6.598;2023-02-12T12:55:34;10.00;99.90
52979;DHT22;63430;53.186;6.598;2023-02-12T12:57:45;10.00;99.90
52979;DHT22;63430;53.186;6.598;2023-02-12T13:00:12;9.90;99.90
52979;DHT22;63430;53.186;6.598;2023-02-12T13:07:44;9.80;99.90
52979;DHT22;63430;53.186;6.598;2023-02-12T13:10:00;9.80;99.90
52979;DHT22;63430;53.186;6.598;2023-02-12T13:12:21;9.70;99.90
52979;DHT22;63430;53.186;6.598;2023-02-12T13:14:32;9.70;99.90
52979;DHT22;63430;53.186;6.598;2023-02-12T13:16:43;9.70;99.90
52979;DHT22;63430;53.186;6.598;2023-02-12T13:18:56;9.70;99.90
52979;DHT22;63430;53.186;6.598;2023-02-12T13:21:10;9.60;99.90
52979;DHT22;63430;53.186;6.598;2023-02-12T13:23:18;9.60;99.90
52979;DHT22;63430;53.186;6.598;2023-02-12T13:25:27;9.60;99.90
52979;DHT22;63430;53.186;6.598;2023-02-12T13:27:35;9.50;99.90
52979;DHT22;63430;53.186;6.598;2023-02-12T13:29:42;9.50;99.90
52979;DHT22;63430;53.186;6.598;2023-02-12T13:31:48;9.40;99.90
52979;DHT22;63430;53.186;6.598;2023-02-12T13:33:54;9.40;99.90
52979;DHT22;63430;53.186;6.598;2023-02-12T13:36:03;9.40;99.90
52979;DHT22;63430;53.186;6.598;2023-02-12T13:38:08;9.40;99.90
52979;DHT22;63430;53.186;6.598;2023-02-12T13:40:15;9.70;99.90
52979;DHT22;63430;53.186;6.598;2023-02-12T13:42:33;9.40;99.90
52979;DHT22;63430;53.186;6.598;2023-02-12T13:44:45;9.40;99.90
52979;DHT22;63430;53.186;6.598;2023-02-12T13:46:54;9.40;99.90
52979;DHT22;63430;53.186;6.598;2023-02-12T13:49:05;9.40;99.90